Time;durP1;ratioP1;P1;durP2;ratioP2;P2;SDS_P1;SDS_P2;PMS_P1;PMS_P2;Temp;Humidity;BMP_temperature;BMP_pressure;BME280_temperature;BME280_humidity;BME280_pressure;Samples;Min_cycle;Max_cycle;Signal;HPM_P1;HPM_P2
2022/11/13 00:01:28;;;;;;;0.50;0.50;;;;;;;10.66;100.00;101031.22;5054013;28;20693;-69
2022/11/13 00:03:57;;;;;;;0.50;0.50;;;;;;;10.70;100.00;101032.88;5054265;28;20208;-69
2022/11/13 00:06:24;;;;;;;0.60;0.60;;;;;;;10.69;100.00;101033.78;5054391;28;20203;-69
2022/11/13 00:08:54;;;;;;;0.77;0.77;;;;;;;10.69;100.00;101029.50;5054192;28;20196;-69
2022/11/13 00:11:20;;;;;;;0.50;0.50;;;;;;;10.71;100.00;101029.47;5053626;28;20236;-69
2022/11/13 00:13:48;;;;;;;0.80;0.80;;;;;;;10.72;100.00;101031.19;5052594;28;20204;-69
2022/11/13 00:16:17;;;;;;;0.50;0.50;;;;;;;10.73;100.00;101022.63;5053605;28;20228;-69
2022/11/13 00:18:46;;;;;;;0.70;0.70;;;;;;;10.70;100.00;101018.34;5053728;28;20201;-69
2022/11/13 00:21:14;;;;;;;0.60;0.60;;;;;;;10.68;100.00;101017.53;5053919;28;20219;-69
2022/11/13 00:23:41;;;;;;;1.00;1.00;;;;;;;10.70;100.00;101014.94;5053478;28;20204;-69
2022/11/13 00:26:10;;;;;;;0.40;0.40;;;;;;;10.71;100.00;101021.78;5054244;28;20653;-69
2022/11/13 00:28:37;;;;;;;0.43;0.43;;;;;;;10.73;100.00;101025.19;5053964;28;20201;-69
2022/11/13 00:31:05;;;;;;;1.13;0.70;;;;;;;10.77;100.00;101014.06;5050125;28;20204;-69
2022/11/13 00:33:32;;;;;;;0.40;0.40;;;;;;;10.76;100.00;101020.06;5053575;28;20197;-69
2022/11/13 00:36:04;;;;;;;0.60;0.60;;;;;;;10.77;100.00;101014.91;5052704;28;20342;-69
2022/11/13 00:38:31;;;;;;;0.40;0.40;;;;;;;10.76;100.00;101022.63;5053836;28;20366;-69
2022/11/13 00:40:59;;;;;;;0.50;0.50;;;;;;;10.77;100.00;101024.31;5053346;28;20228;-69
2022/11/13 00:43:26;;;;;;;0.40;0.40;;;;;;;10.80;100.00;101024.28;5053455;28;20220;-69
2022/11/13 00:45:53;;;;;;;0.60;0.60;;;;;;;10.83;100.00;101024.28;5052280;28;20207;-69
2022/11/13 00:48:20;;;;;;;0.60;0.60;;;;;;;10.74;100.00;101008.94;5053736;28;20196;-69
2022/11/13 00:50:47;;;;;;;0.50;0.50;;;;;;;10.68;100.00;101008.97;5053384;28;20196;-69
2022/11/13 00:53:16;;;;;;;0.50;0.50;;;;;;;10.50;100.00;100984.28;5053511;28;20577;-69
2022/11/13 00:55:43;;;;;;;0.67;0.67;;;;;;;10.75;100.00;101026.03;5053222;28;20627;-69
2022/11/13 00:58:10;;;;;;;0.47;0.47;;;;;;;10.77;100.00;101026.88;5052743;28;20672;-69
2022/11/13 01:00:37;;;;;;;0.40;0.40;;;;;;;10.74;100.00;101030.31;5053098;28;20665;-69
2022/11/13 01:03:04;;;;;;;0.40;0.40;;;;;;;10.77;100.00;101024.31;5052949;28;20708;-69
2022/11/13 01:05:31;;;;;;;0.50;0.50;;;;;;;10.79;100.00;101023.44;5054986;28;20211;-69
2022/11/13 01:07:57;;;;;;;0.50;0.50;;;;;;;10.78;100.00;101026.88;5052298;28;20213;-69
2022/11/13 01:10:25;;;;;;;0.50;0.50;;;;;;;10.70;100.00;101008.09;5052934;28;20231;-69
2022/11/13 01:12:52;;;;;;;0.40;0.40;;;;;;;10.81;100.00;101026.00;5052164;28;20258;-69
2022/11/13 01:15:19;;;;;;;0.50;0.50;;;;;;;10.83;100.00;101024.28;5052297;28;20588;-69
2022/11/13 01:17:46;;;;;;;0.50;0.50;;;;;;;10.82;100.00;101031.16;5052659;28;20247;-69
2022/11/13 01:20:13;;;;;;;0.40;0.40;;;;;;;10.79;100.00;101012.34;5052459;28;20192;-69
2022/11/13 01:22:39;;;;;;;0.60;0.60;;;;;;;10.83;100.00;101024.28;5052650;28;20731;-69
2022/11/13 01:25:07;;;;;;;0.40;0.40;;;;;;;10.81;100.00;101015.75;5052541;28;20611;-69
2022/11/13 01:27:37;;;;;;;0.50;0.50;;;;;;;10.72;100.00;101013.25;5052625;28;20204;-69
2022/11/13 01:30:05;;;;;;;0.50;0.50;;;;;;;10.75;100.00;101010.66;5052447;28;20200;-69
2022/11/13 01:32:32;;;;;;;0.40;0.40;;;;;;;10.80;100.00;101012.31;5052665;28;20287;-69
2022/11/13 01:34:58;;;;;;;0.50;0.50;;;;;;;10.84;100.00;101010.59;5049898;28;20200;-69
2022/11/13 01:37:25;;;;;;;0.70;0.70;;;;;;;10.80;100.00;101008.91;5052440;28;20209;-69
2022/11/13 01:39:52;;;;;;;0.30;0.30;;;;;;;10.72;100.00;100996.13;5052391;28;20603;-69
2022/11/13 01:42:19;;;;;;;0.60;0.60;;;;;;;10.79;100.00;101002.09;5051961;28;20246;-69
2022/11/13 01:44:49;;;;;;;0.67;0.67;;;;;;;10.77;100.00;100999.53;5052182;28;20204;-69
2022/11/13 01:47:17;;;;;;;0.50;0.50;;;;;;;10.77;100.00;100998.66;5051708;28;20200;-69
2022/11/13 01:49:46;;;;;;;0.50;0.50;;;;;;;10.78;100.00;101008.06;5052342;28;20196;-69
2022/11/13 01:52:17;;;;;;;0.50;0.50;;;;;;;10.78;100.00;100996.09;5051825;28;20193;-69
2022/11/13 01:54:48;;;;;;;0.50;0.50;;;;;;;10.79;100.00;100997.78;5052512;28;20619;-69
2022/11/13 01:57:16;;;;;;;1.03;1.03;;;;;;;10.81;100.00;101002.91;5051994;28;20596;-69
2022/11/13 01:59:47;;;;;;;0.50;0.50;;;;;;;10.83;100.00;101001.19;5051857;28;20197;-69
2022/11/13 02:02:15;;;;;;;0.60;0.60;;;;;;;10.80;100.00;100996.06;5049887;28;20270;-69
2022/11/13 02:04:42;;;;;;;0.60;0.60;;;;;;;10.86;100.00;100998.59;5051746;28;20201;-69
2022/11/13 02:07:11;;;;;;;0.40;0.40;;;;;;;10.85;100.00;101007.19;5051051;28;20236;-69
2022/11/13 02:09:41;;;;;;;0.40;0.40;;;;;;;10.87;100.00;101005.44;5050857;28;20216;-69
2022/11/13 02:12:11;;;;;;;0.40;0.40;;;;;;;10.86;100.00;100998.59;5051975;28;20266;-69
2022/11/13 02:14:41;;;;;;;0.50;0.50;;;;;;;10.89;100.00;100993.44;5051764;28;20197;-69
2022/11/13 02:17:11;;;;;;;0.50;0.50;;;;;;;10.90;100.00;100993.47;5051434;28;20228;-69
2022/11/13 02:19:43;;;;;;;0.50;0.50;;;;;;;10.96;100.00;100995.97;5051455;28;20291;-69
2022/11/13 02:22:17;;;;;;;0.47;0.47;;;;;;;10.98;100.00;100994.28;5051669;28;20220;-69
2022/11/13 02:24:46;;;;;;;0.50;0.50;;;;;;;10.96;100.00;100995.13;5051433;28;20200;-69
2022/11/13 02:27:20;;;;;;;0.60;0.60;;;;;;;11.06;100.00;101001.91;5051520;28;20200;-69
2022/11/13 02:29:46;;;;;;;0.50;0.50;;;;;;;11.10;100.00;100998.47;5051355;28;20205;-69
2022/11/13 02:32:13;;;;;;;0.60;0.60;;;;;;;11.08;100.00;100995.06;5051808;28;20204;-69
2022/11/13 02:34:40;;;;;;;0.50;0.50;;;;;;;11.10;100.00;100998.47;5051427;28;20204;-69
2022/11/13 02:37:07;;;;;;;0.50;0.50;;;;;;;11.11;100.00;101000.19;5051709;28;20197;-69
2022/11/13 02:39:34;;;;;;;0.40;0.40;;;;;;;11.13;100.00;100998.44;5051214;28;20723;-69
2022/11/13 02:42:02;;;;;;;0.50;0.50;;;;;;;11.16;100.00;101000.13;5051256;28;20693;-69
2022/11/13 02:44:29;;;;;;;0.40;0.40;;;;;;;11.16;100.00;100998.41;5050940;28;20205;-69
2022/11/13 02:46:55;;;;;;;0.40;0.40;;;;;;;11.18;100.00;100996.69;5050766;28;20647;-69
2022/11/13 02:49:22;;;;;;;0.50;0.50;;;;;;;11.20;100.00;100994.97;5051291;28;20266;-69
2022/11/13 02:51:49;;;;;;;0.50;0.50;;;;;;;11.20;100.00;100994.97;5051044;28;20196;-69
2022/11/13 02:54:16;;;;;;;0.40;0.40;;;;;;;11.21;100.00;100991.53;5051084;28;20627;-69
2022/11/13 02:56:43;;;;;;;0.53;0.53;;;;;;;11.21;100.00;100991.53;5050864;28;20196;-69
2022/11/13 02:59:11;;;;;;;0.40;0.40;;;;;;;11.23;100.00;100984.69;5050841;28;20197;-69
2022/11/13 03:01:38;;;;;;;0.40;0.40;;;;;;;11.26;100.00;100994.06;5050910;28;20196;-69
2022/11/13 03:04:04;;;;;;;0.50;0.50;;;;;;;11.26;100.00;101000.06;5044898;28;20208;-69
2022/11/13 03:06:31;;;;;;;0.50;0.50;;;;;;;11.21;100.00;100981.25;5049664;28;20219;-69
2022/11/13 03:08:58;;;;;;;0.47;0.47;;;;;;;11.32;100.00;100994.88;5050509;28;20239;-69
2022/11/13 03:11:25;;;;;;;0.50;0.50;;;;;;;11.28;100.00;100988.06;5050875;28;20573;-69
2022/11/13 03:13:53;;;;;;;0.40;0.40;;;;;;;11.31;100.00;100984.63;5050576;28;20196;-69
2022/11/13 03:16:21;;;;;;;0.60;0.60;;;;;;;11.31;100.00;100982.88;5050436;28;20231;-69
2022/11/13 03:18:48;;;;;;;0.40;0.40;;;;;;;11.30;100.00;100981.22;5050936;28;20204;-69
2022/11/13 03:21:16;;;;;;;0.40;0.40;;;;;;;11.28;100.00;100975.22;5050806;28;20207;-69
2022/11/13 03:23:44;;;;;;;1.03;1.03;;;;;;;11.34;100.00;100988.00;5050666;28;20694;-69
2022/11/13 03:26:15;;;;;;;0.50;0.50;;;;;;;11.34;100.00;100988.00;5050468;28;20201;-69
2022/11/13 03:28:42;;;;;;;1.20;1.20;;;;;;;11.32;100.00;100992.31;5050866;28;20657;-69
2022/11/13 03:31:09;;;;;;;0.40;0.40;;;;;;;11.34;100.00;100988.00;5050644;28;20569;-69
2022/11/13 03:33:37;;;;;;;0.50;0.50;;;;;;;11.36;100.00;100991.44;5050839;28;20200;-69
2022/11/13 03:36:05;;;;;;;0.60;0.60;;;;;;;11.38;100.00;100984.56;5050397;28;20208;-69
2022/11/13 03:38:34;;;;;;;0.47;0.47;;;;;;;11.37;100.00;100982.84;5052078;28;20262;-69
2022/11/13 03:41:01;;;;;;;1.60;0.80;;;;;;;11.37;100.00;100984.56;5050068;28;20197;-69
2022/11/13 03:43:28;;;;;;;3.60;0.80;;;;;;;11.36;100.00;100990.56;5049844;28;20216;-69
2022/11/13 03:45:55;;;;;;;0.50;0.50;;;;;;;11.33;100.00;100978.63;5050420;28;20203;-69
2022/11/13 03:48:22;;;;;;;0.50;0.50;;;;;;;11.34;100.00;100982.88;5050578;28;20196;-69
2022/11/13 03:50:53;;;;;;;0.40;0.40;;;;;;;11.33;100.00;100986.31;5050537;28;20651;-69
2022/11/13 03:53:20;;;;;;;0.50;0.50;;;;;;;11.34;100.00;100988.00;5049578;28;20338;-69
2022/11/13 03:55:47;;;;;;;0.40;0.40;;;;;;;11.26;100.00;100974.38;5050717;28;20200;-69
2022/11/13 03:58:14;;;;;;;0.40;0.40;;;;;;;11.34;100.00;100988.00;5049698;28;20200;-69
2022/11/13 04:00:43;;;;;;;0.50;0.50;;;;;;;11.30;100.00;100988.91;5049230;28;20212;-69
2022/11/13 04:03:09;;;;;;;0.40;0.40;;;;;;;11.29;100.00;100984.63;5050050;28;20274;-69
2022/11/13 04:05:36;;;;;;;0.40;0.40;;;;;;;11.27;100.00;100991.50;5049078;28;20240;-69
2022/11/13 04:08:05;;;;;;;0.50;0.50;;;;;;;11.25;100.00;100982.09;5050513;28;20205;-69
2022/11/13 04:10:32;;;;;;;0.40;0.40;;;;;;;11.17;100.00;100983.88;5052681;28;20193;-69
2022/11/13 04:12:59;;;;;;;0.60;0.60;;;;;;;11.15;100.00;100983.88;5054313;28;20197;-69
2022/11/13 04:15:26;;;;;;;0.40;0.40;;;;;;;11.21;100.00;100981.25;5053552;28;20197;-69
2022/11/13 04:17:52;;;;;;;0.50;0.50;;;;;;;11.24;100.00;100981.25;5054146;28;20247;-69
2022/11/13 04:20:19;;;;;;;0.40;0.40;;;;;;;11.25;100.00;100987.22;5053883;28;20727;-69
2022/11/13 04:22:46;;;;;;;0.50;0.50;;;;;;;11.25;100.00;100987.22;5054002;28;20212;-69
2022/11/13 04:25:14;;;;;;;0.70;0.70;;;;;;;11.24;100.00;100990.66;5053593;28;20197;-69
2022/11/13 04:27:41;;;;;;;0.43;0.43;;;;;;;11.18;100.00;100991.53;5052673;28;20203;-69
2022/11/13 04:30:09;;;;;;;0.40;0.40;;;;;;;11.11;100.00;100995.03;5053670;28;20628;-69
2022/11/13 04:32:36;;;;;;;0.53;0.53;;;;;;;11.15;100.00;100994.13;5053305;28;21264;-69
2022/11/13 04:35:03;;;;;;;0.60;0.60;;;;;;;11.17;100.00;100995.00;5053597;28;20204;-69
2022/11/13 04:37:32;;;;;;;0.50;0.50;;;;;;;11.13;100.00;100998.44;5053366;28;20199;-69
2022/11/13 04:39:58;;;;;;;0.57;0.57;;;;;;;11.04;100.00;100996.78;5053661;28;20549;-69
2022/11/13 04:45:11;;;;;;;2.23;2.10;;;;;;;11.09;100.00;100996.75;5053413;28;20263;-69
2022/11/13 04:47:38;;;;;;;1.10;1.10;;;;;;;11.11;100.00;101000.19;5051958;28;20197;-69
2022/11/13 04:50:05;;;;;;;0.70;0.70;;;;;;;11.07;100.00;100998.50;5053463;28;20197;-69
2022/11/13 04:52:32;;;;;;;0.50;0.50;;;;;;;11.08;100.00;101006.16;5053281;28;20193;-69
2022/11/13 04:54:58;;;;;;;0.50;0.50;;;;;;;11.09;100.00;101001.88;5053095;28;20715;-69
2022/11/13 04:57:26;;;;;;;0.40;0.40;;;;;;;11.11;100.00;100996.75;5053806;28;20228;-69
2022/11/13 04:59:53;;;;;;;0.50;0.50;;;;;;;11.13;100.00;100997.59;5052306;28;20235;-69
2022/11/13 05:02:20;;;;;;;0.50;0.50;;;;;;;11.13;100.00;100998.44;5052018;28;20216;-69
2022/11/13 05:04:47;;;;;;;0.60;0.60;;;;;;;11.12;100.00;100996.72;5052999;28;20205;-69
2022/11/13 05:07:14;;;;;;;0.40;0.40;;;;;;;11.09;100.00;100996.75;5053064;28;20270;-69
2022/11/13 05:09:41;;;;;;;0.87;0.87;;;;;;;11.10;100.00;101003.59;5052792;28;20205;-69
2022/11/13 05:12:08;;;;;;;0.90;0.90;;;;;;;11.10;100.00;100993.34;5052732;28;20274;-69
2022/11/13 05:14:37;;;;;;;0.70;0.70;;;;;;;11.04;100.00;100989.09;5052729;28;20215;-69
2022/11/13 05:17:05;;;;;;;0.40;0.40;;;;;;;11.10;100.00;100993.34;5052546;28;20224;-69
2022/11/13 05:19:33;;;;;;;0.40;0.40;;;;;;;11.10;100.00;101001.03;5052851;28;20746;-69
2022/11/13 05:22:00;;;;;;;0.70;0.70;;;;;;;11.07;100.00;100998.50;5052140;28;20665;-69
2022/11/13 05:24:27;;;;;;;0.43;0.43;;;;;;;11.07;100.00;101006.19;5053035;28;20197;-69
2022/11/13 05:26:54;;;;;;;0.57;0.57;;;;;;;10.93;100.00;100984.88;5052425;28;20196;-69
2022/11/13 05:29:21;;;;;;;0.50;0.50;;;;;;;11.05;100.00;101007.88;5052601;28;20196;-69
2022/11/13 05:31:49;;;;;;;0.60;0.60;;;;;;;11.05;100.00;101002.75;5052680;28;20201;-69
2022/11/13 05:34:16;;;;;;;0.47;0.47;;;;;;;11.06;100.00;101007.03;5052735;28;20189;-69
2022/11/13 05:36:42;;;;;;;0.50;0.50;;;;;;;11.07;100.00;101013.88;5052749;28;20207;-69
2022/11/13 05:39:09;;;;;;;0.40;0.40;;;;;;;11.07;100.00;101013.88;5052529;28;20676;-69
2022/11/13 05:41:36;;;;;;;0.40;0.40;;;;;;;11.08;100.00;101013.03;5052291;28;20227;-69
2022/11/13 05:44:03;;;;;;;0.40;0.40;;;;;;;11.08;100.00;101013.03;5052165;28;20216;-69
2022/11/13 05:46:30;;;;;;;2.47;2.00;;;;;;;11.10;100.00;101016.44;5052304;28;20730;-69
2022/11/13 05:49:01;;;;;;;0.60;0.60;;;;;;;11.05;100.00;101013.88;5052277;28;20220;-69
2022/11/13 05:51:30;;;;;;;0.50;0.50;;;;;;;10.97;100.00;100999.41;5052368;28;20579;-69
2022/11/13 05:53:57;;;;;;;0.50;0.50;;;;;;;11.04;100.00;101014.75;5051474;28;20200;-69
2022/11/13 05:56:27;;;;;;;0.90;0.90;;;;;;;11.05;100.00;101018.16;5050854;28;20211;-69
2022/11/13 05:58:55;;;;;;;0.33;0.33;;;;;;;11.06;100.00;101022.44;5052225;28;20201;-69
2022/11/13 06:01:24;;;;;;;0.50;0.50;;;;;;;11.04;100.00;101019.91;5050734;28;20227;-69
2022/11/13 06:03:51;;;;;;;0.60;0.60;;;;;;;11.11;100.00;101032.69;5051649;28;20286;-69
2022/11/13 06:06:20;;;;;;;0.50;0.50;;;;;;;11.12;100.00;101032.66;5051168;28;20204;-69
2022/11/13 06:08:48;;;;;;;0.60;0.60;;;;;;;11.05;100.00;101010.47;5051637;28;20201;-69
2022/11/13 06:11:17;;;;;;;1.23;1.23;;;;;;;11.14;100.00;101030.09;5051676;28;20200;-69
2022/11/13 06:13:44;;;;;;;0.60;0.60;;;;;;;11.11;100.00;101023.28;5051437;28;20193;-69
2022/11/13 06:16:12;;;;;;;0.60;0.60;;;;;;;11.14;100.00;101024.97;5051217;28;20277;-69
2022/11/13 06:18:40;;;;;;;0.60;0.60;;;;;;;11.10;100.00;101024.13;5051875;28;20192;-69
2022/11/13 06:21:09;;;;;;;0.40;0.40;;;;;;;11.20;100.00;101036.03;5051524;28;20200;-69
2022/11/13 06:23:39;;;;;;;0.50;0.50;;;;;;;11.15;100.00;101031.81;5048654;28;20209;-69
2022/11/13 06:26:08;;;;;;;0.40;0.40;;;;;;;11.15;100.00;101032.63;5051700;28;20201;-69
2022/11/13 06:28:35;;;;;;;0.40;0.40;;;;;;;11.06;100.00;101025.00;5051318;28;20208;-69
2022/11/13 06:31:06;;;;;;;0.83;0.83;;;;;;;11.16;100.00;101039.50;5051707;28;20211;-69
2022/11/13 06:33:33;;;;;;;0.93;0.83;;;;;;;11.23;100.00;101041.16;5050547;28;20224;-69
2022/11/13 06:36:02;;;;;;;0.43;0.43;;;;;;;11.23;100.00;101036.03;5051410;28;20665;-69
2022/11/13 06:38:31;;;;;;;1.67;1.57;;;;;;;11.23;100.00;101035.16;5051447;28;20616;-69
2022/11/13 06:41:00;;;;;;;0.53;0.53;;;;;;;11.06;100.00;101022.44;5051269;28;20649;-69
2022/11/13 06:43:27;;;;;;;0.57;0.57;;;;;;;11.23;100.00;101033.47;5049948;28;20653;-69
2022/11/13 06:45:55;;;;;;;0.73;0.73;;;;;;;11.30;100.00;101032.56;5051119;28;20224;-69
2022/11/13 06:48:22;;;;;;;0.40;0.40;;;;;;;11.41;100.00;101028.19;5050996;28;20204;-69
2022/11/13 06:50:49;;;;;;;0.40;0.40;;;;;;;11.46;100.00;101021.31;5051424;28;20201;-69
2022/11/13 06:53:17;;;;;;;0.60;0.60;;;;;;;11.51;100.00;101026.38;5050517;28;20197;-68
2022/11/13 06:55:44;;;;;;;0.83;0.83;;;;;;;11.57;100.00;101028.91;5050379;28;20209;-69
2022/11/13 06:58:13;;;;;;;0.50;0.50;;;;;;;11.56;100.00;101025.50;5049776;28;20205;-69
2022/11/13 07:00:40;;;;;;;0.50;0.50;;;;;;;11.53;100.00;101007.53;5050651;28;20197;-69
2022/11/13 07:03:16;;;;;;;0.70;0.70;;;;;;;11.62;100.00;101008.31;5051082;28;20216;-69
2022/11/13 07:05:43;;;;;;;0.50;0.50;;;;;;;11.65;100.00;101008.28;5050856;28;20200;-69
2022/11/13 07:08:09;;;;;;;0.50;0.50;;;;;;;11.68;100.00;101021.13;5050946;28;20214;-69
2022/11/13 07:10:36;;;;;;;0.50;0.50;;;;;;;11.78;100.00;101020.19;5049618;28;20196;-69
2022/11/13 07:13:03;;;;;;;0.97;0.97;;;;;;;11.82;100.00;101016.75;5050365;28;20197;-69
2022/11/13 07:15:33;;;;;;;0.50;0.50;;;;;;;11.85;100.00;101021.84;5050523;28;20262;-69
2022/11/13 07:18:00;;;;;;;0.50;0.50;;;;;;;11.82;100.00;101011.59;5050653;28;20204;-69
2022/11/13 07:20:27;;;;;;;0.50;0.50;;;;;;;11.82;100.00;101011.59;5050745;28;20204;-69
2022/11/13 07:22:55;;;;;;;1.10;1.10;;;;;;;11.95;100.00;101008.06;5050620;28;20709;-69
2022/11/13 07:25:22;;;;;;;0.87;0.80;;;;;;;12.07;100.00;101002.78;5048228;28;20200;-69
2022/11/13 07:27:49;;;;;;;0.50;0.50;;;;;;;12.20;100.00;101009.50;5050517;28;20224;-69
2022/11/13 07:30:16;;;;;;;0.37;0.37;;;;;;;12.31;100.00;101004.22;5050866;28;20219;-69
2022/11/13 07:32:44;;;;;;;0.47;0.47;;;;;;;12.41;100.00;100998.06;5050649;28;20795;-69
2022/11/13 07:35:11;;;;;;;0.50;0.50;;;;;;;12.54;100.00;101004.78;5050640;28;20201;-69
2022/11/13 07:37:38;;;;;;;0.80;0.80;;;;;;;12.55;100.00;100989.34;5050706;28;20205;-69
2022/11/13 07:40:06;;;;;;;0.50;0.50;;;;;;;12.79;100.00;101000.19;5050476;28;20189;-69
2022/11/13 07:42:33;;;;;;;0.50;0.50;;;;;;;12.92;100.00;101002.56;5050307;28;20208;-69
2022/11/13 07:45:00;;;;;;;0.50;0.50;;;;;;;13.03;100.00;101004.97;5053514;28;20707;-69
2022/11/13 07:47:26;;;;;;;0.50;0.50;;;;;;;13.03;100.00;101010.13;5054863;28;20204;-69
2022/11/13 07:49:55;;;;;;;0.50;0.50;;;;;;;13.16;100.00;101001.38;5054756;28;20208;-69
2022/11/13 07:52:21;;;;;;;0.50;0.50;;;;;;;13.17;100.00;101008.22;5053790;28;20235;-68
2022/11/13 07:54:48;;;;;;;0.50;0.50;;;;;;;13.05;100.00;101008.38;5052962;28;20204;-69
2022/11/13 07:57:15;;;;;;;0.43;0.43;;;;;;;13.03;100.00;101005.81;5054167;28;20660;-69
2022/11/13 07:59:42;;;;;;;0.50;0.50;;;;;;;13.04;100.00;101006.69;5053844;28;20208;-68
2022/11/13 08:02:14;;;;;;;0.40;0.40;;;;;;;13.00;100.00;101010.16;5054224;28;20258;-69
2022/11/13 08:04:41;;;;;;;0.40;0.40;;;;;;;13.09;100.00;101010.06;5053767;28;20688;-69
2022/11/13 08:07:11;;;;;;;0.57;0.57;;;;;;;13.08;100.00;101000.63;5053971;28;20631;-69
2022/11/13 08:09:38;;;;;;;0.50;0.50;;;;;;;13.33;100.00;101017.44;5053951;28;20259;-69
2022/11/13 08:12:05;;;;;;;0.50;0.50;;;;;;;13.42;100.00;101009.53;5054192;28;20268;-69
2022/11/13 08:14:32;;;;;;;0.60;0.60;;;;;;;13.46;100.00;101016.34;5053973;28;20197;-69
2022/11/13 08:16:59;;;;;;;0.40;0.40;;;;;;;13.35;100.00;101015.66;5053621;28;20220;-69
2022/11/13 08:19:25;;;;;;;0.83;0.83;;;;;;;13.25;100.00;101016.69;5054115;28;20205;-69
2022/11/13 08:21:52;;;;;;;0.50;0.50;;;;;;;13.32;100.00;101018.28;5054301;28;20263;-69
2022/11/13 08:24:22;;;;;;;0.47;0.47;;;;;;;13.39;100.00;101016.47;5053797;28;20212;-69
2022/11/13 08:26:48;;;;;;;0.50;0.50;;;;;;;13.43;100.00;101019.00;5051529;28;20201;-69
2022/11/13 08:29:15;;;;;;;0.70;0.70;;;;;;;13.39;100.00;101009.59;5053745;28;20258;-69
2022/11/13 08:31:42;;;;;;;0.40;0.40;;;;;;;13.46;100.00;101013.78;5054149;28;20205;-69
2022/11/13 08:34:08;;;;;;;0.40;0.40;;;;;;;13.60;100.00;101016.97;5053233;28;20193;-69
2022/11/13 08:36:35;;;;;;;0.50;0.50;;;;;;;13.65;100.00;101017.75;5053412;28;20197;-69
2022/11/13 08:39:02;;;;;;;0.40;0.40;;;;;;;13.70;100.00;101019.41;5053707;28;20202;-69
2022/11/13 08:41:30;;;;;;;0.40;0.40;;;;;;;13.73;100.00;101014.19;5053424;28;20205;-69
2022/11/13 08:43:57;;;;;;;1.03;1.03;;;;;;;13.85;100.00;101013.97;5053929;28;20223;-69
2022/11/13 08:46:24;;;;;;;0.60;0.60;;;;;;;13.99;100.00;101012.00;5053635;28;20565;-69
2022/11/13 08:48:50;;;;;;;0.40;0.40;;;;;;;14.10;100.00;101021.25;5052638;28;20201;-69
2022/11/13 08:51:18;;;;;;;1.03;1.03;;;;;;;14.12;100.00;101013.44;5052802;28;20206;-69
2022/11/13 08:53:44;;;;;;;2.37;2.37;;;;;;;14.22;100.00;101014.16;5051074;28;20235;-69
2022/11/13 08:56:11;;;;;;;1.47;1.47;;;;;;;14.09;100.00;101016.09;5052478;28;20204;-68
2022/11/13 08:58:39;;;;;;;1.33;1.33;;;;;;;14.02;100.00;101017.94;5053042;28;20683;-69
2022/11/13 09:01:06;;;;;;;1.17;1.17;;;;;;;14.03;100.00;101018.78;5053255;28;20204;-69
2022/11/13 09:03:34;;;;;;;0.50;0.50;;;;;;;14.10;100.00;101012.66;5052855;28;20216;-69
2022/11/13 09:06:05;;;;;;;0.50;0.50;;;;;;;14.15;100.00;101008.25;5053279;28;20192;-68
2022/11/13 09:08:32;;;;;;;0.50;0.50;;;;;;;14.27;100.00;101002.00;5052915;28;20204;-69
2022/11/13 09:11:04;;;;;;;0.50;0.50;;;;;;;14.36;100.00;101005.28;5053355;28;20670;-69
2022/11/13 09:13:30;;;;;;;0.53;0.53;;;;;;;14.49;100.00;101001.56;5053025;28;20711;-69
2022/11/13 09:16:00;;;;;;;0.50;0.50;;;;;;;14.44;100.00;100995.63;5052793;28;20751;-69
2022/11/13 09:18:26;;;;;;;0.40;0.40;;;;;;;14.44;100.00;101005.97;5052888;28;20280;-69
2022/11/13 09:20:53;;;;;;;0.50;0.50;;;;;;;14.61;100.00;100993.56;5052888;28;20204;-70
2022/11/13 09:23:21;;;;;;;1.50;0.90;;;;;;;14.64;100.00;100998.66;5052729;28;20230;-69
2022/11/13 09:25:48;;;;;;;0.60;0.60;;;;;;;14.61;100.00;100993.56;5052497;28;20738;-69
2022/11/13 09:28:14;;;;;;;0.40;0.40;;;;;;;14.61;100.00;100993.56;5052520;28;20216;-69
2022/11/13 09:30:41;;;;;;;0.53;0.53;;;;;;;14.73;100.00;100981.28;5052532;28;20193;-69
2022/11/13 09:33:14;;;;;;;0.90;0.90;;;;;;;14.86;100.00;100983.56;5052575;28;20250;-69
2022/11/13 09:35:41;;;;;;;0.60;0.60;;;;;;;14.96;100.00;100979.06;5052667;28;20668;-69
2022/11/13 09:38:10;;;;;;;0.80;0.80;;;;;;;14.99;100.00;100976.41;5052824;28;20200;-69
2022/11/13 09:40:41;;;;;;;0.50;0.50;;;;;;;15.08;100.00;100978.75;5052442;28;20257;-69
2022/11/13 09:43:17;;;;;;;0.50;0.50;;;;;;;15.18;100.00;100964.75;5052443;28;20189;-69
2022/11/13 09:45:44;;;;;;;0.53;0.53;;;;;;;15.25;100.00;100971.44;5051300;28;20200;-70
2022/11/13 09:48:28;;;;;;;0.40;0.40;;;;;;;15.29;100.00;100957.56;5051373;28;20204;-70
2022/11/13 09:50:56;;;;;;;0.50;0.50;;;;;;;15.34;100.00;100955.72;5050514;28;20211;-69
2022/11/13 09:53:24;;;;;;;0.50;0.50;;;;;;;15.22;100.00;100945.69;5052393;28;20198;-69
2022/11/13 09:56:01;;;;;;;0.40;0.40;;;;;;;15.16;100.00;100935.50;5052154;28;20683;-70
2022/11/13 09:58:40;;;;;;;0.40;0.40;;;;;;;15.16;100.00;100945.81;5052217;28;20355;-69
2022/11/13 10:01:14;;;;;;;0.60;0.60;;;;;;;15.29;100.00;100947.22;5049446;28;20808;-62
2022/11/13 10:03:51;;;;;;;2.23;0.70;;;;;;;15.58;100.00;100939.63;5050886;28;20703;-62
2022/11/13 10:06:27;;;;;;;0.70;0.70;;;;;;;15.50;100.00;100946.72;5049233;28;20201;-62
2022/11/13 10:08:58;;;;;;;0.50;0.50;;;;;;;15.51;100.00;100948.41;5050504;28;20216;-61
2022/11/13 10:11:39;;;;;;;0.40;0.40;;;;;;;15.60;100.00;100940.44;5051677;28;20200;-62
2022/11/13 10:14:16;;;;;;;0.47;0.47;;;;;;;15.65;98.67;100948.91;5051435;28;20675;-61
2022/11/13 10:16:48;;;;;;;0.67;0.67;;;;;;;15.67;100.00;100934.19;5048696;28;20707;-61
2022/11/13 10:19:22;;;;;;;0.50;0.50;;;;;;;15.46;98.99;100933.88;5051091;28;20208;-61
2022/11/13 10:21:52;;;;;;;0.60;0.60;;;;;;;15.39;100.00;100940.94;5051638;28;20243;-61
2022/11/13 10:24:29;;;;;;;0.50;0.50;;;;;;;15.41;100.00;100934.00;5050345;28;20279;-62
2022/11/13 10:26:59;;;;;;;0.50;0.50;;;;;;;15.23;100.00;100926.72;5049430;28;20198;-62
2022/11/13 10:29:29;;;;;;;0.50;0.50;;;;;;;15.35;100.00;100926.41;5050043;28;20203;-61
2022/11/13 10:31:58;;;;;;;0.60;0.60;;;;;;;15.39;100.00;100924.59;5046302;28;20443;-61
2022/11/13 10:34:26;;;;;;;0.43;0.43;;;;;;;15.57;99.55;100916.41;5048652;28;20534;-62
2022/11/13 10:37:13;;;;;;;0.50;0.50;;;;;;;15.74;97.11;100915.06;5049356;28;20200;-61
2022/11/13 10:39:43;;;;;;;0.57;0.57;;;;;;;15.90;99.05;100909.44;5050244;28;20217;-62
2022/11/13 10:42:22;;;;;;;0.50;0.50;;;;;;;16.10;99.53;100907.16;5048728;28;20207;-62
2022/11/13 10:44:57;;;;;;;0.87;0.87;;;;;;;16.34;97.77;100906.44;5049005;28;20326;-62
2022/11/13 10:47:25;;;;;;;0.50;0.50;;;;;;;16.28;95.44;100886.75;5048345;28;20727;-62
2022/11/13 10:49:55;;;;;;;0.80;0.80;;;;;;;16.36;94.26;100899.47;5045533;28;20657;-62
2022/11/13 10:52:24;;;;;;;0.70;0.70;;;;;;;16.21;95.45;100899.94;5046881;28;20589;-61
2022/11/13 10:54:51;;;;;;;0.97;0.97;;;;;;;16.13;95.51;100896.72;5048902;28;20197;-62
2022/11/13 10:57:24;;;;;;;0.50;0.50;;;;;;;16.01;95.40;100889.31;5049375;28;20201;-61
2022/11/13 10:59:51;;;;;;;0.80;0.80;;;;;;;15.89;95.33;100897.44;5050334;28;20197;-61
2022/11/13 11:02:20;;;;;;;0.50;0.50;;;;;;;15.61;96.54;100885.25;5051218;28;20657;-61
2022/11/13 11:04:47;;;;;;;0.77;0.77;;;;;;;15.54;97.59;100883.72;5049247;28;20224;-61
2022/11/13 11:07:17;;;;;;;0.50;0.50;;;;;;;15.56;98.02;100884.53;5048444;28;20245;-62
2022/11/13 11:09:46;;;;;;;0.40;0.40;;;;;;;15.48;98.38;100878.72;5045444;28;20274;-62
2022/11/13 11:12:17;;;;;;;1.67;1.57;;;;;;;15.20;98.51;100857.03;5048892;28;20198;-61
2022/11/13 11:14:57;;;;;;;0.40;0.40;;;;;;;15.32;99.17;100879.97;5049682;28;20206;-61
2022/11/13 11:17:28;;;;;;;0.70;0.70;;;;;;;15.33;99.43;100866.16;5049112;28;20235;-62
2022/11/13 11:20:01;;;;;;;0.70;0.70;;;;;;;15.28;99.86;100842.19;5048882;28;20208;-61
2022/11/13 11:22:34;;;;;;;0.80;0.80;;;;;;;15.41;98.70;100864.22;5049570;28;20201;-61
2022/11/13 11:25:07;;;;;;;2.50;1.80;;;;;;;15.33;99.02;100866.16;5049326;28;20217;-62